Flight Track Log - Related Links

Times and Time Zones

All times are in EDT time to prevent confusion due to time zone crossing. See the SWA542 flight status page for this flight to view local times or setup timezone preferences in your user account.

Time Position Orientation Groundspeed Altitude Reporting Facility
EDT Latitude Longitude Course Direction KTS MPH feet Rate Location/Type
Mon 12:28:17 AM 37.7500 -122.2833 202° Southwest 198 228 2,100  Level Northern Cal TRACON
Mon 12:29:11 AM 37.7756 -122.3297 305° West 211 243 4,300 2,950 Climbing Oakland Center
Mon 12:30:17 AM 37.7333 -122.4000 233° Southwest 281 323 8,000 2,689 Climbing Northern Cal TRACON
Mon 12:32:14 AM 37.5653 -122.4389 190° South 366 421 12,500 2,663 Climbing Oakland Center
Mon 12:33:00 AM 37.1212 -122.4894 202° Southwest  Level FlightAware Approximate
Mon 12:33:15 AM 37.4594 -122.4622 190° South 385 443 15,900  Level Oakland Center
Mon 12:34:16 AM 37.3483 -122.4864 190° South 400 460 18,700 2,951 Climbing Oakland Center
Mon 12:35:17 AM 37.2078 -122.5169 190° South 424 488 21,900 2,754 Climbing Oakland Center
Mon 12:36:18 AM 37.0861 -122.5439 190° South 440 506 24,300 2,164 Climbing Oakland Center
Mon 12:37:19 AM 36.9614 -122.5697 189° South 454 522 26,300 1,835 Climbing Oakland Center
Mon 12:38:19 AM 36.8311 -122.5411 170° South 471 542 28,000 1,934 Climbing Oakland Center
Mon 12:39:20 AM 36.7022 -122.5050 167° South 475 547 30,200 2,164 Climbing Oakland Center
Mon 12:40:21 AM 36.5769 -122.4628 165° South 469 540 32,400 2,016 Climbing Oakland Center
Mon 12:41:22 AM 36.4856 -122.3433 134° Southeast 470 541 34,300 1,623 Climbing Oakland Center
Mon 12:42:23 AM 36.3939 -122.2292 135° Southeast 469 540 35,700 1,230 Climbing Oakland Center
Mon 12:43:24 AM 36.3014 -122.1119 134° Southeast 475 547 36,800 1,180 Climbing Oakland Center
Mon 12:44:25 AM 36.2094 -121.9933 134° Southeast 479 551 38,100 1,041 Climbing Oakland Center
Mon 12:45:25 AM 36.1164 -121.8778 135° Southeast 476 548 38,900 446 Climbing Oakland Center
Mon 12:46:26 AM 36.0161 -121.7519 135° Southeast 480 552 39,000 49 Climbing Oakland Center
Mon 12:47:27 AM 35.9228 -121.6325 134° Southeast 483 556 39,000  Level Oakland Center
Mon 12:48:28 AM 35.8281 -121.5144 135° Southeast 485 558 39,000  Level Oakland Center
Mon 12:49:29 AM 35.7344 -121.3972 135° Southeast 483 556 39,000  Level Oakland Center
Mon 12:50:29 AM 35.6383 -121.2792 135° Southeast 488 562 39,000  Level Oakland Center
Mon 12:51:30 AM 35.5444 -121.1608 134° Southeast 486 559 39,000  Level Oakland Center
Mon 12:52:31 AM 35.4575 -121.0356 130° Southeast 485 558 39,000  Level Oakland Center
Mon 12:53:32 AM 35.3647 -120.8736 125° Southeast 485 558 39,000  Level Oakland Center
Mon 12:54:33 AM 35.2883 -120.7383 125° Southeast 488 562 39,000  Level Oakland Center
Mon 12:55:36 AM 35.2061 -120.5933 125° Southeast 488 562 39,000  Level Los Angeles Center
Mon 12:56:49 AM 35.1286 -120.4558 125° Southeast 488 562 39,000  Level Los Angeles Center
Mon 12:57:51 AM 35.0344 -120.2914 125° Southeast 489 563 39,000  Level Los Angeles Center
Mon 12:58:52 AM 34.9553 -120.1547 125° Southeast 490 564 39,000  Level Los Angeles Center
Mon 12:59:53 AM 34.8742 -120.0147 125° Southeast 485 558 39,000  Level Los Angeles Center
Mon 01:00:54 AM 34.7958 -119.8803 125° Southeast 489 563 39,000  Level Los Angeles Center
Mon 01:01:55 AM 34.7183 -119.7458 125° Southeast 489 563 39,000  Level Los Angeles Center
Mon 01:02:56 AM 34.6397 -119.6114 125° Southeast 491 565 39,000  Level Los Angeles Center
Mon 01:03:58 AM 34.5575 -119.4750 126° Southeast 489 563 39,000  Level Los Angeles Center
Mon 01:04:59 AM 34.4783 -119.3406 126° Southeast 490 564 39,000  Level Los Angeles Center
Mon 01:06:00 AM 34.3994 -119.2075 126° Southeast 490 564 39,000  Level Los Angeles Center
Mon 01:07:01 AM 34.3192 -119.0739 126° Southeast 492 566 39,000  Level Los Angeles Center
Mon 01:08:02 AM 34.2400 -118.9406 126° Southeast 489 563 39,000  Level Los Angeles Center
Mon 01:09:03 AM 34.1589 -118.8078 126° Southeast 491 565 39,000 -246 Level Los Angeles Center
Mon 01:10:04 AM 34.0789 -118.6747 126° Southeast 490 564 38,500 -836 Descending Los Angeles Center
Mon 01:11:05 AM 33.9825 -118.5156 126° Southeast 490 564 37,300 -1,082 Descending Los Angeles Center
Mon 01:12:06 AM 33.8981 -118.3861 128° Southeast 492 566 36,300 -1,024 Descending Los Angeles Center
Mon 01:13:08 AM 33.8136 -118.2833 135° Southeast 494 568 35,200 -2,146 Descending Los Angeles Center
Mon 01:14:09 AM 33.7236 -118.1644 132° Southeast 488 562 31,900 -3,344 Descending Los Angeles Center
Mon 01:15:10 AM 33.6108 -118.0208 133° Southeast 489 563 28,400 -3,148 Descending Los Angeles Center
Mon 01:16:11 AM 33.5208 -117.9069 133° Southeast 476 548 25,500 -2,361 Descending Los Angeles Center
Mon 01:17:12 AM 33.4342 -117.7969 133° Southeast 459 528 23,600 -2,951 Descending Los Angeles Center
Mon 01:18:13 AM 33.3492 -117.6908 134° Southeast 445 512 19,500 -3,707 Descending Los Angeles Center
Mon 01:19:15 AM 33.2669 -117.5861 133° Southeast 434 499 16,000 -2,195 Descending Los Angeles Center
Mon 01:20:16 AM 33.1800 -117.5056 142° Southeast 398 458 15,000 -992 Descending Los Angeles Center
Mon 01:21:16 AM 33.1000 -117.4333 143° Southeast 329 379 14,000 -1,158 Descending Southern California TRACON
Mon 01:22:10 AM 33.0333 -117.3833 148° Southeast 315 362 12,800 -1,421 Descending Southern California TRACON
Mon 01:23:10 AM 32.9667 -117.3333 148° Southeast 310 357 11,300 -1,474 Descending Southern California TRACON
Mon 01:24:04 AM 32.9000 -117.2833 148° Southeast 301 346 10,000 -1,421 Descending Southern California TRACON
Mon 01:25:04 AM 32.8333 -117.2167 140° Southeast 299 344 8,600 -1,231 Descending Southern California TRACON
Mon 01:25:22 AM 32.8192 -117.2161 178° South 297 342 8,400 -1,340 Descending Los Angeles Center
Mon 01:26:47 AM 32.7856 -117.0933 108° East 290 334 6,300 -1,667 Descending Los Angeles Center
Mon 01:27:10 AM 32.7667 -117.0333 111° Southeast 283 326 5,400 -940 Descending Southern California TRACON
Mon 01:28:10 AM 32.7500 -116.9500 103° East 252 290 5,000 -571 Descending Southern California TRACON
Mon 01:29:16 AM 32.7000 -116.9500 180° South 219 252 4,200 -762 Descending Southern California TRACON
Mon 01:30:16 AM 32.7000 -117.0167 270° West 196 226 3,400 -1,100 Descending Southern California TRACON
Mon 01:31:16 AM 32.7000 -117.0667 270° West 164 189 2,000 -1,105 Descending Southern California TRACON
Mon 01:32:10 AM 32.7167 -117.1167 292° West 138 159 1,300 -735 Descending Southern California TRACON
Mon 01:32:54 AM 32.7208 -117.1358 284° West 143 165 800 -629 Descending Los Angeles Center
Mon 01:33:55 AM 32.7319 -117.1828 286° West 138 159 200 -590 Descending Los Angeles Center
Mon 01:35:00 AM 32.7333 -117.1833 275° West  Level FlightAware Approximate
Mon 01:42:00 AM 32.7336 -117.1897 275° West  Level Estimated

Login

Don't have an account? Register now (free) for customized features, flight alerts, and more!